Time;durP1;ratioP1;P1;durP2;ratioP2;P2;SDS_P1;SDS_P2;PMS_P1;PMS_P2;Temp;Humidity;BMP_temperature;BMP_pressure;BME280_temperature;BME280_humidity;BME280_pressure;Samples;Min_cycle;Max_cycle;Signal;HPM_P1;HPM_P2
2022/07/01 00:00:25;;;;;;;3.55;1.75;;;;;;;18.88;66.10;100650.31;4148459;28;20065;-66
2022/07/01 00:02:28;;;;;;;3.63;1.05;;;;;;;18.79;66.82;100656.56;4148189;28;20084;-66
2022/07/01 00:04:32;;;;;;;3.65;1.10;;;;;;;18.61;66.75;100652.44;4148448;28;20049;-66
2022/07/01 00:06:53;;;;;;;4.60;1.30;;;;;;;18.45;67.02;100648.31;4149324;28;20042;-66
2022/07/01 00:08:56;;;;;;;3.22;1.27;;;;;;;18.42;67.87;100636.06;4147745;28;20045;-66
2022/07/01 00:11:00;;;;;;;4.70;1.13;;;;;;;18.38;68.08;100629.09;4147900;28;20061;-66
2022/07/01 00:13:04;;;;;;;2.97;1.08;;;;;;;18.33;67.85;100625.69;4146450;28;20076;-66
2022/07/01 00:15:09;;;;;;;1.58;1.10;;;;;;;18.39;68.23;100624.72;4146268;28;20050;-66
2022/07/01 00:17:12;;;;;;;4.05;1.35;;;;;;;18.41;68.02;100618.56;4147393;28;20041;-66
2022/07/01 00:19:14;;;;;;;2.28;1.08;;;;;;;18.38;68.20;100615.94;4148533;28;20552;-66
2022/07/01 00:21:17;;;;;;;3.95;0.90;;;;;;;18.41;68.28;100613.28;4140020;28;20049;-66
2022/07/01 00:23:21;;;;;;;1.83;0.90;;;;;;;18.42;68.58;100611.50;4147080;28;20309;-66
2022/07/01 00:25:24;;;;;;;5.15;1.30;;;;;;;18.40;69.36;100608.91;4147108;28;20400;-66
2022/07/01 00:27:28;;;;;;;3.35;1.05;;;;;;;18.47;69.32;100607.91;4152377;28;20277;-66
2022/07/01 00:29:32;;;;;;;1.67;1.23;;;;;;;18.44;69.20;100612.34;4146701;28;20104;-66
2022/07/01 00:31:36;;;;;;;2.95;0.95;;;;;;;18.42;68.96;100616.78;4146251;28;20128;-66
2022/07/01 00:33:39;;;;;;;3.53;1.35;;;;;;;18.38;68.54;100617.72;4145576;28;20042;-66
2022/07/01 00:35:42;;;;;;;3.45;1.13;;;;;;;18.31;68.99;100612.56;4148356;28;20030;-66
2022/07/01 00:37:45;;;;;;;4.20;1.13;;;;;;;18.28;68.49;100638.91;4146728;28;20088;-66
2022/07/01 00:39:48;;;;;;;3.40;1.00;;;;;;;18.28;68.86;100648.56;4160014;28;20066;-66
2022/07/01 00:41:51;;;;;;;3.55;0.90;;;;;;;18.25;68.63;100657.38;4144069;28;20465;-67
2022/07/01 00:43:59;;;;;;;1.90;0.80;;;;;;;18.29;68.31;100666.09;4146929;28;20068;-66
2022/07/01 00:46:02;;;;;;;1.70;0.90;;;;;;;18.29;68.03;100669.59;4147711;28;20068;-66
2022/07/01 00:48:06;;;;;;;2.25;0.80;;;;;;;18.18;68.29;100662.75;4145886;28;20069;-66
2022/07/01 00:50:12;;;;;;;3.72;0.88;;;;;;;18.05;67.47;100668.19;4147839;28;20045;-66
2022/07/01 00:52:15;;;;;;;1.73;1.02;;;;;;;17.98;67.92;100666.53;4148233;28;20038;-66
2022/07/01 00:54:18;;;;;;;1.85;0.90;;;;;;;17.90;68.14;100664.00;4150115;28;20091;-66
2022/07/01 00:56:21;;;;;;;1.15;0.77;;;;;;;17.98;68.03;100668.28;4163514;28;20420;-66
2022/07/01 00:58:27;;;;;;;1.20;0.70;;;;;;;18.02;68.02;100668.22;4146845;28;20050;-66
2022/07/01 01:00:31;;;;;;;4.75;1.00;;;;;;;18.06;67.93;100669.94;4146032;28;20141;-72
2022/07/01 01:02:35;;;;;;;1.45;1.00;;;;;;;18.09;67.30;100664.63;4146264;28;20397;-66
2022/07/01 01:04:37;;;;;;;3.35;1.23;;;;;;;18.10;67.75;100671.59;4147406;28;20042;-66
2022/07/01 01:06:41;;;;;;;3.15;1.27;;;;;;;18.06;67.73;100680.47;4147279;28;20037;-66
2022/07/01 01:08:46;;;;;;;5.22;1.17;;;;;;;17.93;67.94;100682.38;4150134;28;20116;-66
2022/07/01 01:10:49;;;;;;;4.82;1.48;;;;;;;17.94;68.87;100680.59;4151193;28;20038;-66
2022/07/01 01:12:52;;;;;;;3.03;1.25;;;;;;;17.96;68.38;100686.72;4146633;28;20037;-66
2022/07/01 01:14:57;;;;;;;2.65;1.35;;;;;;;17.90;68.49;100677.16;4148286;28;20048;-66
2022/07/01 01:17:01;;;;;;;3.50;1.20;;;;;;;17.96;68.21;100677.06;4147126;28;20079;-65
2022/07/01 01:19:05;;;;;;;2.22;1.10;;;;;;;17.89;68.85;100671.88;4146189;28;20417;-66
2022/07/01 01:21:09;;;;;;;3.25;1.10;;;;;;;17.96;68.52;100684.09;4143898;28;20042;-66
2022/07/01 01:23:12;;;;;;;2.67;1.50;;;;;;;17.96;68.62;100679.69;4156884;28;20088;-66
2022/07/01 01:25:15;;;;;;;4.50;1.67;;;;;;;18.00;68.79;100670.00;4148256;28;20034;-65
2022/07/01 01:27:18;;;;;;;2.25;1.10;;;;;;;18.01;68.69;100682.25;4146616;28;20065;-65
2022/07/01 01:29:21;;;;;;;2.67;1.60;;;;;;;18.01;68.72;100681.41;4147759;28;20048;-66
2022/07/01 01:31:33;;;;;;;6.20;1.85;;;;;;;17.93;68.20;100681.47;4147261;28;20065;-66
2022/07/01 01:33:36;;;;;;;2.97;1.27;;;;;;;17.94;68.22;100680.59;4141463;28;20107;-66
2022/07/01 01:35:39;;;;;;;6.05;1.40;;;;;;;17.94;68.61;100680.59;4147131;28;20501;-66
2022/07/01 01:37:43;;;;;;;2.22;1.17;;;;;;;17.98;68.49;100679.69;4148392;28;20133;-66
2022/07/01 01:39:46;;;;;;;;;;;;;;;17.83;68.69;100677.19;4146322;28;21631;-66
2022/07/01 01:41:49;;;;;;;2.22;1.27;;;;;;;17.83;68.71;100678.09;4146144;28;20320;-66
2022/07/01 01:43:52;;;;;;;3.72;1.50;;;;;;;17.88;68.77;100673.63;4145950;28;20475;-66
2022/07/01 01:45:55;;;;;;;1.55;1.20;;;;;;;17.83;68.11;100662.31;4147769;28;20038;-66
2022/07/01 01:47:57;;;;;;;2.55;1.45;;;;;;;17.76;68.67;100664.13;4129451;28;20045;-66
2022/07/01 01:50:01;;;;;;;4.63;1.50;;;;;;;17.76;68.88;100664.13;4145071;28;20045;-66
2022/07/01 01:52:04;;;;;;;3.08;1.70;;;;;;;17.80;69.40;100655.31;4150868;28;20382;-66
2022/07/01 01:54:08;;;;;;;4.40;1.67;;;;;;;17.85;68.99;100659.66;4146694;28;20045;-66
2022/07/01 01:56:11;;;;;;;4.00;1.70;;;;;;;17.87;69.15;100668.38;4146717;28;20044;-65
2022/07/01 01:58:15;;;;;;;2.88;1.40;;;;;;;17.82;68.34;100670.22;4146740;28;20432;-66
2022/07/01 02:00:18;;;;;;;1.38;1.00;;;;;;;17.74;68.10;100678.16;4146786;28;20070;-65
2022/07/01 02:02:21;;;;;;;3.63;1.38;;;;;;;17.70;67.34;100682.63;4128204;28;20598;-66
2022/07/01 02:04:24;;;;;;;2.25;1.10;;;;;;;17.65;67.84;100673.91;4146038;28;20485;-65
2022/07/01 02:06:27;;;;;;;3.58;1.20;;;;;;;17.61;67.82;100674.84;4152649;28;20038;-65
2022/07/01 02:08:31;;;;;;;1.38;1.02;;;;;;;17.61;67.68;100673.06;4146835;28;20136;-66
2022/07/01 02:10:35;;;;;;;1.48;1.00;;;;;;;17.61;67.55;100677.47;4145800;28;20121;-66
2022/07/01 02:12:38;;;;;;;1.63;1.13;;;;;;;17.63;67.95;100683.56;4146337;28;20583;-69
2022/07/01 02:14:41;;;;;;;1.52;0.90;;;;;;;17.60;67.69;100671.31;4144840;28;20387;-66
2022/07/01 02:16:44;;;;;;;3.22;1.10;;;;;;;17.62;67.35;100671.31;4146510;28;20125;-66
2022/07/01 02:18:48;;;;;;;1.77;1.00;;;;;;;17.59;67.11;100666.94;4146536;28;20033;-67
2022/07/01 02:20:52;;;;;;;3.67;1.10;;;;;;;17.60;67.06;100665.22;4145428;28;20034;-66
2022/07/01 02:22:55;;;;;;;4.13;1.17;;;;;;;17.62;67.12;100660.78;4145551;28;20141;-67
2022/07/01 02:24:58;;;;;;;1.77;1.17;;;;;;;17.62;66.99;100663.41;4147309;28;20045;-66
2022/07/01 02:27:02;;;;;;;1.67;1.20;;;;;;;17.48;66.40;100657.44;4145597;28;20065;-66
2022/07/01 02:29:05;;;;;;;1.75;1.55;;;;;;;17.56;66.91;100653.84;4146557;28;20052;-66
2022/07/01 02:31:08;;;;;;;2.40;1.58;;;;;;;17.63;67.06;100650.25;4147395;28;20038;-66
2022/07/01 02:33:11;;;;;;;2.55;1.95;;;;;;;17.67;67.11;100648.47;4147606;28;20046;-66
2022/07/01 02:35:14;;;;;;;1.73;1.30;;;;;;;17.66;67.06;100646.72;4148766;28;20640;-66
2022/07/01 02:37:17;;;;;;;3.03;1.80;;;;;;;17.67;67.22;100648.47;4149495;28;20505;-67
2022/07/01 02:39:20;;;;;;;3.25;1.85;;;;;;;17.61;66.87;100641.53;4148794;28;20033;-66
2022/07/01 02:41:23;;;;;;;2.40;1.80;;;;;;;17.65;67.03;100637.09;4150496;28;20042;-66
2022/07/01 02:43:27;;;;;;;1.98;1.42;;;;;;;17.68;67.29;100639.66;4148201;28;20552;-66
2022/07/01 02:45:32;;;;;;;1.75;1.40;;;;;;;17.62;66.49;100639.75;4148528;28;20479;-65
2022/07/01 02:47:36;;;;;;;1.60;1.30;;;;;;;17.52;66.17;100643.38;4149409;28;20062;-66
2022/07/01 02:49:39;;;;;;;2.17;1.30;;;;;;;17.53;66.84;100643.34;4153471;28;20042;-66
2022/07/01 02:51:43;;;;;;;1.70;1.10;;;;;;;17.58;66.53;100635.41;4150036;28;20544;-66
2022/07/01 02:53:46;;;;;;;1.42;1.30;;;;;;;17.52;65.70;100638.13;4150438;28;20096;-66
2022/07/01 02:55:49;;;;;;;1.63;1.20;;;;;;;17.52;65.73;100635.50;4149283;28;20399;-66
2022/07/01 02:57:52;;;;;;;1.25;1.13;;;;;;;17.52;65.84;100632.88;4148440;28;20513;-65
2022/07/01 02:59:56;;;;;;;1.40;1.30;;;;;;;17.55;65.78;100640.72;4149421;28;20041;-65
2022/07/01 03:01:59;;;;;;;2.22;1.33;;;;;;;17.51;65.57;100631.13;4149007;28;20084;-65
2022/07/01 03:04:02;;;;;;;3.50;1.30;;;;;;;17.58;66.18;100631.06;4149949;28;20042;-66
2022/07/01 03:06:05;;;;;;;1.50;1.08;;;;;;;17.54;66.18;100644.25;4149488;28;20038;-65
2022/07/01 03:08:08;;;;;;;2.35;1.40;;;;;;;17.44;66.15;100654.84;4149397;28;20041;-66
2022/07/01 03:10:11;;;;;;;2.97;1.67;;;;;;;17.47;66.17;100653.09;4148577;28;20060;-66
2022/07/01 03:12:28;;;;;;;1.23;1.10;;;;;;;17.42;65.92;100659.25;4163993;28;20398;-65
2022/07/01 03:14:31;;;;;;;2.15;0.90;;;;;;;17.25;65.32;100651.56;4148523;28;20048;-66
2022/07/01 03:16:35;;;;;;;1.48;1.27;;;;;;;17.30;66.19;100648.88;4148088;28;20097;-65
2022/07/01 03:18:38;;;;;;;2.40;1.17;;;;;;;17.23;65.80;100621.81;4149063;28;20053;-65
2022/07/01 03:20:41;;;;;;;2.67;1.08;;;;;;;17.22;65.11;100622.69;4148126;28;20046;-66
2022/07/01 03:22:46;;;;;;;3.15;1.23;;;;;;;17.17;65.51;100628.88;4146808;28;20412;-66
2022/07/01 03:24:50;;;;;;;2.63;1.27;;;;;;;17.12;65.35;100639.44;4145290;28;20539;-66
2022/07/01 03:26:53;;;;;;;2.05;1.23;;;;;;;17.09;65.31;100637.69;4148642;28;20052;-66
2022/07/01 03:28:56;;;;;;;1.27;0.98;;;;;;;17.12;65.45;100636.81;4163431;28;20261;-65
2022/07/01 03:30:59;;;;;;;2.10;1.00;;;;;;;17.11;65.57;100642.94;4154145;28;20072;-65
2022/07/01 03:33:03;;;;;;;1.55;1.00;;;;;;;17.14;65.76;100657.81;4150545;28;20045;-65
2022/07/01 03:37:24;;;;;;;3.00;1.50;;;;;;;17.09;65.63;100665.72;4139946;28;20049;-66
2022/07/01 03:39:27;;;;;;;2.70;1.00;;;;;;;17.15;66.28;100667.44;4147491;28;20492;-66
2022/07/01 03:41:30;;;;;;;1.58;0.85;;;;;;;17.18;65.69;100659.53;4142225;28;20046;-66
2022/07/01 03:43:33;;;;;;;1.10;0.95;;;;;;;17.32;65.40;100644.47;4147968;28;20501;-65
2022/07/01 03:45:36;;;;;;;1.05;0.88;;;;;;;17.35;65.50;100646.22;4151339;28;20475;-65
2022/07/01 03:47:46;;;;;;;1.45;0.90;;;;;;;17.37;65.67;100653.19;4147609;28;20041;-65
2022/07/01 03:49:50;;;;;;;1.27;0.90;;;;;;;17.30;65.81;100651.50;4148787;28;20038;-65
2022/07/01 03:51:53;;;;;;;2.25;1.10;;;;;;;17.21;66.00;100643.72;4146814;28;20497;-65
2022/07/01 03:56:16;;;;;;;1.15;0.80;;;;;;;17.23;65.84;100660.31;4135589;28;20057;-65
2022/07/01 03:58:19;;;;;;;1.58;0.70;;;;;;;17.19;65.52;100659.50;4148701;28;20057;-65
2022/07/01 04:00:23;;;;;;;1.85;0.90;;;;;;;17.20;66.01;100663.00;4145490;28;20504;-65
2022/07/01 04:02:26;;;;;;;3.07;1.23;;;;;;;17.22;65.96;100685.75;4160381;28;20056;-65
2022/07/01 04:04:29;;;;;;;1.48;0.88;;;;;;;17.23;66.57;100687.50;4146629;28;20382;-65
2022/07/01 04:06:33;;;;;;;1.88;1.35;;;;;;;17.41;70.65;100675.91;4145722;28;20052;-64
2022/07/01 04:08:37;;;;;;;2.28;1.10;;;;;;;17.92;69.90;100687.66;4154939;28;20034;-64
2022/07/01 04:10:41;;;;;;;1.52;0.90;;;;;;;18.39;67.49;100680.00;4163125;28;20079;-64
2022/07/01 04:12:45;;;;;;;1.85;1.05;;;;;;;18.61;65.24;100680.53;4148021;28;20516;-63
2022/07/01 04:15:00;;;;;;;1.45;1.20;;;;;;;18.57;63.53;100684.13;4148435;28;20125;-63
2022/07/01 04:17:03;;;;;;;1.42;0.98;;;;;;;18.69;63.66;100673.41;4161878;28;20049;-63
2022/07/01 04:19:07;;;;;;;2.70;1.20;;;;;;;18.74;64.23;100679.47;4146395;28;20076;-64
2022/07/01 04:23:33;;;;;;;2.05;1.10;;;;;;;19.14;62.22;100680.56;4151062;28;20050;-64
2022/07/01 04:25:36;;;;;;;3.00;1.00;;;;;;;19.23;61.98;100674.25;4148327;28;20463;-64
2022/07/01 04:27:40;;;;;;;2.20;0.98;;;;;;;19.33;61.48;100675.84;4131197;28;20445;-64
2022/07/01 04:29:42;;;;;;;1.95;1.05;;;;;;;19.28;60.60;100689.09;4147510;28;20038;-64
2022/07/01 04:31:46;;;;;;;6.57;1.10;;;;;;;19.22;60.34;100718.22;4148988;28;20124;-65
2022/07/01 04:33:49;;;;;;;1.20;0.90;;;;;;;19.22;59.91;100730.53;4147408;28;20434;-64
2022/07/01 04:35:52;;;;;;;1.35;0.88;;;;;;;19.22;59.91;100727.91;4149753;28;20030;-64
2022/07/01 04:37:57;;;;;;;1.67;0.80;;;;;;;19.13;60.43;100726.28;4147334;28;20556;-64
2022/07/01 04:40:02;;;;;;;0.80;0.80;;;;;;;19.13;59.78;100719.25;4138674;28;20038;-65
2022/07/01 04:42:04;;;;;;;1.02;0.75;;;;;;;19.07;59.91;100721.09;4139427;28;20164;-64
2022/07/01 04:44:07;;;;;;;1.65;1.10;;;;;;;19.09;59.55;100722.81;4141162;28;20510;-64
2022/07/01 04:46:10;;;;;;;2.13;1.10;;;;;;;19.00;59.56;100738.81;4146238;28;20145;-64
2022/07/01 04:48:14;;;;;;;1.67;0.80;;;;;;;18.97;59.45;100730.94;4153219;28;20038;-64
2022/07/01 04:50:17;;;;;;;1.92;1.00;;;;;;;19.06;59.14;100728.16;4154693;28;20049;-65
2022/07/01 04:52:20;;;;;;;2.28;1.25;;;;;;;19.11;59.86;100730.69;4153870;28;20590;-66
2022/07/01 04:54:25;;;;;;;1.10;0.98;;;;;;;19.10;59.96;100724.56;4140999;28;20137;-66
2022/07/01 04:56:30;;;;;;;1.25;0.85;;;;;;;19.08;59.69;100736.03;4158027;28;20045;-66
2022/07/01 04:58:32;;;;;;;2.50;1.00;;;;;;;18.88;59.76;100734.59;4143187;28;20041;-65
2022/07/01 05:00:36;;;;;;;1.65;0.90;;;;;;;18.76;59.52;100738.25;4143202;28;20068;-67
2022/07/01 05:02:40;;;;;;;4.80;1.30;;;;;;;18.69;59.85;100733.97;4144437;28;20034;-66
2022/07/01 05:04:43;;;;;;;2.63;1.17;;;;;;;18.55;60.11;100721.00;4147243;28;20120;-66
2022/07/01 05:06:46;;;;;;;2.08;1.15;;;;;;;18.46;60.23;100721.16;4146481;28;20046;-65
2022/07/01 05:08:50;;;;;;;3.03;1.40;;;;;;;18.57;60.42;100731.50;4147786;28;20040;-67
2022/07/01 05:10:54;;;;;;;2.67;1.00;;;;;;;18.77;61.54;100742.63;4129894;28;20051;-66
2022/07/01 05:13:01;;;;;;;1.73;0.90;;;;;;;18.91;61.64;100749.47;4147391;28;20068;-66
2022/07/01 05:15:06;;;;;;;6.40;1.27;;;;;;;18.93;61.10;100753.81;4139625;28;20039;-66
2022/07/01 05:17:09;;;;;;;4.45;1.80;;;;;;;18.90;60.93;100760.91;4148140;28;20034;-66
2022/07/01 05:23:53;;;;;;;3.53;2.03;;;;;;;18.68;61.06;100763.84;4148022;28;20056;-65
2022/07/01 05:25:56;;;;;;;5.47;2.05;;;;;;;18.87;60.55;100759.19;4146100;28;20038;-65
2022/07/01 05:28:00;;;;;;;6.90;1.58;;;;;;;18.96;60.57;100755.53;4146017;28;20108;-65
2022/07/01 05:30:04;;;;;;;4.63;1.98;;;;;;;19.01;60.11;100764.22;4146465;28;20041;-65
2022/07/01 05:32:07;;;;;;;3.53;1.83;;;;;;;18.96;60.34;100748.50;4139437;28;20048;-65
2022/07/01 05:34:10;;;;;;;4.67;1.90;;;;;;;19.00;60.07;100746.69;4156377;28;20068;-65
2022/07/01 05:36:13;;;;;;;2.50;1.55;;;;;;;19.17;59.68;100742.03;4147861;28;20755;-66
2022/07/01 05:38:16;;;;;;;6.18;2.00;;;;;;;19.27;59.22;100749.75;4146467;28;20464;-65
2022/07/01 05:40:19;;;;;;;1.98;1.40;;;;;;;19.29;60.17;100761.13;4146072;28;20044;-66
2022/07/01 05:42:22;;;;;;;3.13;1.50;;;;;;;19.28;60.00;100770.81;4143278;28;20105;-66
2022/07/01 05:44:26;;;;;;;3.22;1.40;;;;;;;19.21;60.31;100785.00;4147734;28;20066;-66
2022/07/01 05:46:29;;;;;;;4.13;1.52;;;;;;;19.27;60.32;100789.31;4147839;28;20512;-66
2022/07/01 05:48:32;;;;;;;7.40;2.13;;;;;;;19.29;60.50;100783.13;4143012;28;20536;-67
2022/07/01 05:50:35;;;;;;;3.58;2.20;;;;;;;19.38;59.88;100779.47;4155643;28;20120;-66
2022/07/01 05:52:38;;;;;;;3.00;1.80;;;;;;;19.38;60.28;100768.91;4147250;28;20040;-66
2022/07/01 05:54:41;;;;;;;4.53;1.88;;;;;;;19.49;59.97;100759.06;4147293;28;20036;-66
2022/07/01 05:56:44;;;;;;;6.63;2.22;;;;;;;19.58;59.93;100762.41;4147587;28;20048;-66
2022/07/01 05:58:47;;;;;;;4.00;1.88;;;;;;;19.52;59.70;100776.56;4146141;28;20042;-66
2022/07/01 06:00:51;;;;;;;8.38;2.58;;;;;;;19.41;60.07;100782.03;4147687;28;20462;-66
2022/07/01 06:02:54;;;;;;;4.53;1.77;;;;;;;19.37;60.46;100775.06;4147381;28;20053;-66
2022/07/01 06:05:03;;;;;;;5.00;1.80;;;;;;;19.35;60.91;100779.50;4145159;28;20136;-66
2022/07/01 06:07:06;;;;;;;3.88;1.80;;;;;;;19.35;61.09;100795.31;4139407;28;20058;-66
2022/07/01 06:09:09;;;;;;;3.17;1.92;;;;;;;19.31;61.03;100791.84;4159728;28;20413;-66
2022/07/01 06:11:12;;;;;;;4.15;1.67;;;;;;;19.23;60.99;100800.78;4144828;28;20519;-64
2022/07/01 06:13:16;;;;;;;3.72;2.33;;;;;;;19.17;61.25;100796.47;4147147;28;20041;-64
2022/07/01 06:15:22;;;;;;;2.40;1.90;;;;;;;19.19;60.36;100792.94;4146238;28;20124;-64
2022/07/01 06:17:26;;;;;;;2.90;1.40;;;;;;;19.13;60.38;100797.44;4141640;28;20046;-66
2022/07/01 06:19:29;;;;;;;3.58;1.63;;;;;;;19.05;60.24;100791.41;4161310;28;20116;-66
2022/07/01 06:21:32;;;;;;;2.75;1.30;;;;;;;19.09;60.26;100801.88;4147209;28;20046;-66
2022/07/01 06:23:36;;;;;;;3.33;1.50;;;;;;;19.14;59.65;100802.69;4125660;28;20081;-66
2022/07/01 06:25:38;;;;;;;5.75;1.40;;;;;;;19.16;59.47;100803.53;4139944;28;20056;-66
2022/07/01 06:27:42;;;;;;;2.80;1.38;;;;;;;19.16;59.80;100808.81;4144692;28;20128;-66
2022/07/01 06:29:45;;;;;;;2.55;1.10;;;;;;;19.13;59.54;100814.13;4144156;28;20088;-66
2022/07/01 06:31:48;;;;;;;1.60;1.10;;;;;;;19.22;60.52;100809.63;4156709;28;20038;-66
2022/07/01 06:33:53;;;;;;;4.38;1.42;;;;;;;19.25;60.78;100809.56;4143901;28;20604;-66
2022/07/01 06:35:56;;;;;;;1.58;1.23;;;;;;;19.16;61.28;100819.34;4145537;28;20084;-66
2022/07/01 06:37:59;;;;;;;4.88;1.20;;;;;;;19.03;60.59;100812.53;4144507;28;20125;-66
2022/07/01 06:40:07;;;;;;;3.42;1.10;;;;;;;19.06;60.62;100812.47;4143583;28;20038;-66
2022/07/01 06:42:10;;;;;;;3.95;1.30;;;;;;;19.14;60.52;100807.97;4144490;28;20045;-66
2022/07/01 06:44:13;;;;;;;3.13;1.10;;;;;;;19.19;61.20;100815.78;4145284;28;20050;-66
2022/07/01 06:46:16;;;;;;;1.85;1.17;;;;;;;19.17;61.24;100814.94;4144518;28;20129;-66
2022/07/01 06:48:19;;;;;;;3.28;1.02;;;;;;;19.11;61.29;100809.75;4144967;28;20046;-66
2022/07/01 06:50:24;;;;;;;7.00;1.40;;;;;;;19.13;61.06;100811.50;4146082;28;20068;-66
2022/07/01 06:52:26;;;;;;;2.03;0.93;;;;;;;19.21;61.55;100813.13;4142600;28;20052;-66
2022/07/01 06:54:29;;;;;;;1.98;1.00;;;;;;;19.27;61.25;100815.66;4146100;28;20137;-66
2022/07/01 06:56:32;;;;;;;2.45;1.33;;;;;;;19.33;61.45;100820.81;4129335;28;20062;-66
2022/07/01 06:58:35;;;;;;;2.17;1.20;;;;;;;19.36;61.25;100823.41;4120540;28;20169;-66
2022/07/01 07:00:38;;;;;;;3.13;1.45;;;;;;;19.42;61.27;100828.59;4159767;28;20033;-66
2022/07/01 07:02:42;;;;;;;4.72;1.35;;;;;;;19.48;60.80;100831.13;4145077;28;20088;-66
2022/07/01 07:04:44;;;;;;;2.92;1.42;;;;;;;19.51;60.76;100835.50;4144784;28;20092;-66
2022/07/01 07:07:06;;;;;;;2.63;1.33;;;;;;;19.58;60.75;100844.16;4146462;28;20049;-66
2022/07/01 07:09:09;;;;;;;5.13;1.63;;;;;;;19.59;60.30;100848.53;4147714;28;20061;-66
2022/07/01 07:11:14;;;;;;;1.77;1.20;;;;;;;19.66;60.59;100844.91;4147427;28;20124;-66
2022/07/01 07:13:17;;;;;;;2.75;1.38;;;;;;;19.58;60.92;100852.06;4142490;28;20528;-66
2022/07/01 07:15:27;;;;;;;3.75;1.85;;;;;;;19.55;61.09;100863.53;4137704;28;20493;-66
2022/07/01 07:17:31;;;;;;;2.40;1.08;;;;;;;19.46;61.73;100864.56;4143092;28;20136;-66
2022/07/01 07:19:34;;;;;;;2.53;1.40;;;;;;;19.57;61.23;100866.19;4155918;28;20475;-66
2022/07/01 07:21:37;;;;;;;4.30;1.60;;;;;;;19.50;61.28;100870.66;4147820;28;20096;-66
2022/07/01 07:23:42;;;;;;;6.95;1.80;;;;;;;19.31;61.56;100867.44;4163610;28;20128;-66
2022/07/01 07:25:45;;;;;;;2.72;1.52;;;;;;;19.31;61.96;100870.09;4149529;28;20516;-65
2022/07/01 07:27:48;;;;;;;2.83;1.73;;;;;;;19.31;61.76;100857.75;4149772;28;20440;-66
2022/07/01 07:29:51;;;;;;;4.88;2.20;;;;;;;19.28;62.22;100849.06;4141274;28;20034;-66
2022/07/01 07:31:54;;;;;;;1.80;1.58;;;;;;;19.32;62.31;100845.47;4141330;28;20048;-66
2022/07/01 07:33:57;;;;;;;4.88;1.75;;;;;;;19.26;62.26;100842.91;4148310;28;20042;-66
2022/07/01 07:36:00;;;;;;;5.75;2.97;;;;;;;19.36;62.62;100852.41;4148473;28;20132;-66
2022/07/01 07:38:03;;;;;;;3.72;1.58;;;;;;;19.28;62.50;100849.06;4149468;28;20141;-65
2022/07/01 07:40:12;;;;;;;3.65;1.83;;;;;;;19.25;62.61;100849.97;4164700;28;20071;-65
2022/07/01 07:42:15;;;;;;;3.00;1.88;;;;;;;19.08;63.14;100841.44;4133067;28;20383;-66
2022/07/01 07:44:18;;;;;;;2.72;2.00;;;;;;;19.06;62.79;100846.72;4133293;28;20133;-66
2022/07/01 07:46:20;;;;;;;2.83;1.60;;;;;;;19.04;63.16;100838.00;4133439;28;20038;-66
2022/07/01 07:48:23;;;;;;;3.88;2.08;;;;;;;19.11;63.09;100836.97;4136949;28;20451;-66
2022/07/01 07:50:27;;;;;;;4.95;2.38;;;;;;;19.18;63.10;100828.09;4149576;28;20065;-66
2022/07/01 07:52:30;;;;;;;3.15;1.65;;;;;;;19.05;63.07;100839.72;4147938;28;20121;-66
2022/07/01 07:54:33;;;;;;;5.10;2.20;;;;;;;18.75;63.53;100838.34;4149377;28;20124;-66
2022/07/01 07:56:37;;;;;;;6.25;1.95;;;;;;;18.59;64.56;100838.56;4134508;28;20058;-66
2022/07/01 07:58:47;;;;;;;3.25;2.00;;;;;;;18.77;64.14;100840.06;4147180;28;20048;-66
2022/07/01 08:00:50;;;;;;;5.82;2.53;;;;;;;18.94;63.43;100833.72;4147687;28;20481;-66
2022/07/01 08:02:53;;;;;;;1.75;1.55;;;;;;;18.99;62.96;100831.91;4147348;28;20592;-66
2022/07/01 08:04:56;;;;;;;2.08;1.80;;;;;;;19.11;63.11;100826.44;4159307;28;20042;-66
2022/07/01 08:06:59;;;;;;;3.85;2.00;;;;;;;19.12;62.63;100825.56;4147902;28;20084;-66
2022/07/01 08:09:02;;;;;;;3.80;1.88;;;;;;;19.27;62.38;100831.47;4159834;28;20124;-66
2022/07/01 08:11:05;;;;;;;7.28;3.30;;;;;;;19.30;62.72;100818.25;4151179;28;20089;-66
2022/07/01 08:13:09;;;;;;;5.10;2.13;;;;;;;19.34;62.39;100817.31;4147263;28;20038;-66
2022/07/01 08:15:12;;;;;;;2.40;1.58;;;;;;;19.39;62.52;100810.22;4148260;28;20052;-66
2022/07/01 08:17:15;;;;;;;8.05;1.67;;;;;;;19.47;62.87;100815.34;4142589;28;20049;-65
2022/07/01 08:19:18;;;;;;;4.13;1.80;;;;;;;19.52;62.49;100835.47;4142580;28;20044;-65
2022/07/01 08:21:21;;;;;;;2.58;1.92;;;;;;;19.38;62.36;100840.09;4145289;28;20466;-65
2022/07/01 08:23:24;;;;;;;5.15;2.55;;;;;;;19.28;62.86;100860.44;4146653;28;20042;-65
2022/07/01 08:25:27;;;;;;;3.65;2.20;;;;;;;19.14;62.97;100865.94;4146880;28;20053;-65
2022/07/01 08:27:37;;;;;;;2.20;1.88;;;;;;;19.09;63.67;100877.44;4148344;28;20038;-66
2022/07/01 08:29:41;;;;;;;4.85;2.05;;;;;;;19.00;63.76;100875.81;4148097;28;20042;-65
2022/07/01 08:31:44;;;;;;;2.35;2.00;;;;;;;18.84;64.08;100888.28;4146789;28;20042;-65
2022/07/01 08:33:47;;;;;;;3.03;1.98;;;;;;;18.83;64.78;100883.91;4143859;28;20504;-65
2022/07/01 08:35:50;;;;;;;3.03;1.70;;;;;;;18.79;64.75;100898.88;4147387;28;20519;-65
2022/07/01 08:37:54;;;;;;;4.20;2.25;;;;;;;18.89;64.26;100885.63;4163202;28;20037;-65
2022/07/01 08:39:57;;;;;;;3.92;2.60;;;;;;;19.03;63.69;100888.94;4144502;28;20034;-65
2022/07/01 08:41:59;;;;;;;2.40;1.77;;;;;;;19.09;63.49;100891.47;4146109;28;20038;-65
2022/07/01 08:44:03;;;;;;;2.85;1.77;;;;;;;19.16;63.11;100901.03;4149159;28;20038;-65
2022/07/01 08:46:08;;;;;;;4.25;1.95;;;;;;;19.19;63.74;100898.38;4147217;28;20096;-65
2022/07/01 08:48:11;;;;;;;4.85;2.17;;;;;;;19.21;63.01;100900.13;4144656;28;20100;-64
2022/07/01 08:50:14;;;;;;;4.15;2.15;;;;;;;19.11;63.37;100908.13;4145790;28;20084;-65
2022/07/01 08:52:22;;;;;;;3.10;1.90;;;;;;;19.10;63.22;100914.31;4139904;28;20044;-65
2022/07/01 08:54:25;;;;;;;3.40;1.90;;;;;;;18.92;62.86;100919.81;4148740;28;20116;-65
2022/07/01 08:56:45;;;;;;;2.20;1.70;;;;;;;18.80;62.70;100921.69;4143054;28;20125;-66
2022/07/01 08:58:49;;;;;;;3.78;1.52;;;;;;;18.80;63.07;100929.59;4161392;28;20473;-65
2022/07/01 09:00:52;;;;;;;2.33;1.67;;;;;;;18.96;62.42;100930.28;4142899;28;20758;-66
2022/07/01 09:03:04;;;;;;;3.10;1.45;;;;;;;18.96;61.62;100911.84;4129466;28;20414;-66
2022/07/01 09:05:08;;;;;;;1.88;1.20;;;;;;;19.04;61.33;100919.69;4147333;28;20512;-66
2022/07/01 09:07:11;;;;;;;3.43;1.40;;;;;;;19.11;61.33;100921.31;4146247;28;20379;-65
2022/07/01 09:09:15;;;;;;;1.83;1.25;;;;;;;19.14;61.15;100912.50;4162149;28;20036;-65
2022/07/01 09:11:23;;;;;;;2.35;1.55;;;;;;;19.27;60.69;100916.69;4154852;28;20069;-65
2022/07/01 09:13:26;;;;;;;1.90;1.10;;;;;;;19.28;61.11;100914.94;4139719;28;20038;-66
2022/07/01 09:15:31;;;;;;;2.10;1.40;;;;;;;19.38;61.13;100906.00;4147342;28;20044;-65
2022/07/01 09:17:40;;;;;;;4.40;1.77;;;;;;;19.51;60.54;100918.09;4143382;28;20497;-67
2022/07/01 09:19:50;;;;;;;3.47;1.35;;;;;;;19.57;60.35;100925.06;4146523;28;20038;-67
2022/07/01 09:21:56;;;;;;;2.45;1.13;;;;;;;19.56;60.66;100918.03;4157767;28;20068;-67
2022/07/01 09:24:02;;;;;;;3.75;1.58;;;;;;;19.66;60.71;100918.75;4145071;28;20034;-67
2022/07/01 09:26:06;;;;;;;3.42;1.73;;;;;;;19.46;59.52;100921.72;4152122;28;20576;-67
2022/07/01 09:28:12;;;;;;;2.58;1.42;;;;;;;19.41;60.68;100927.06;4141611;28;20049;-67
2022/07/01 09:30:15;;;;;;;4.90;1.38;;;;;;;19.52;60.25;100926.88;4145032;28;20532;-67
2022/07/01 09:32:20;;;;;;;3.45;2.13;;;;;;;19.59;58.81;100917.13;4142044;28;20062;-67
2022/07/01 09:34:23;;;;;;;2.28;1.55;;;;;;;19.62;60.12;100917.06;4147377;28;20417;-67
2022/07/01 09:36:28;;;;;;;4.32;1.67;;;;;;;19.49;59.81;100919.91;4147825;28;20120;-67
2022/07/01 09:38:31;;;;;;;2.60;1.40;;;;;;;19.53;59.21;100924.22;4154492;28;20042;-67
2022/07/01 09:40:53;;;;;;;2.97;1.20;;;;;;;19.42;58.03;100926.16;4144037;28;20041;-67
2022/07/01 09:42:57;;;;;;;2.80;1.45;;;;;;;19.42;57.87;100920.00;4148486;28;20439;-67
2022/07/01 09:45:05;;;;;;;3.55;1.75;;;;;;;19.64;58.06;100916.16;4151728;28;20041;-67
2022/07/01 09:47:08;;;;;;;3.63;1.17;;;;;;;19.54;57.57;100918.06;4146423;28;20496;-67